Time;durP1;ratioP1;P1;durP2;ratioP2;P2;SDS_P1;SDS_P2;PMS_P1;PMS_P2;Temp;Humidity;BMP_temperature;BMP_pressure;BME280_temperature;BME280_humidity;BME280_pressure;Samples;Min_cycle;Max_cycle;Signal;HPM_P1;HPM_P2
2022/11/29 00:00:30;;;;;;;1.60;1.30;;;8.80;98.20;;;;;;4989011;28;20465;-75
2022/11/29 00:02:57;;;;;;;1.60;1.10;;;8.80;98.20;;;;;;5009766;28;20506;-75
2022/11/29 00:05:23;;;;;;;1.60;1.10;;;8.80;98.20;;;;;;4980868;28;21205;-77
2022/11/29 00:07:50;;;;;;;1.60;1.10;;;8.80;98.20;;;;;;4995938;28;20496;-76
2022/11/29 00:10:18;;;;;;;1.60;1.20;;;8.80;98.20;;;;;;4969474;28;20517;-77
2022/11/29 00:12:47;;;;;;;1.60;1.10;;;8.80;98.20;;;;;;4989692;28;20487;-76
2022/11/29 00:15:14;;;;;;;1.60;1.10;;;8.80;98.20;;;;;;4974473;28;20487;-76
2022/11/29 00:17:41;;;;;;;1.60;1.20;;;8.80;98.20;;;;;;4991512;28;20507;-76
2022/11/29 00:20:09;;;;;;;1.60;1.20;;;8.80;98.20;;;;;;4989642;28;20468;-77
2022/11/29 00:22:36;;;;;;;1.67;1.30;;;8.80;98.20;;;;;;4999653;28;20591;-77
2022/11/29 00:25:03;;;;;;;1.60;1.20;;;8.80;98.20;;;;;;4974303;28;20481;-76
2022/11/29 00:27:30;;;;;;;1.60;1.20;;;8.80;98.20;;;;;;4986920;28;20725;-76
2022/11/29 00:29:58;;;;;;;1.60;1.27;;;8.80;98.20;;;;;;4977121;28;20481;-76
2022/11/29 00:32:25;;;;;;;1.60;1.10;;;8.80;98.20;;;;;;4992648;28;20500;-76
2022/11/29 00:34:51;;;;;;;1.63;1.20;;;8.80;98.20;;;;;;4977869;28;20485;-76
2022/11/29 00:37:18;;;;;;;1.60;1.20;;;8.80;98.20;;;;;;4985506;28;20480;-76
2022/11/29 00:39:45;;;;;;;1.60;1.20;;;8.80;98.20;;;;;;4984968;28;20467;-77
2022/11/29 00:42:12;;;;;;;1.70;1.30;;;8.80;98.20;;;;;;4982062;28;20485;-77
2022/11/29 00:44:38;;;;;;;1.60;1.30;;;8.80;98.20;;;;;;4979078;28;20484;-76
2022/11/29 00:47:06;;;;;;;1.60;1.20;;;8.80;98.20;;;;;;4990186;28;21027;-76
2022/11/29 00:49:33;;;;;;;1.60;1.17;;;8.70;98.20;;;;;;4996858;28;20488;-77
2022/11/29 00:52:00;;;;;;;1.60;1.20;;;8.80;98.20;;;;;;5000063;28;20506;-77
2022/11/29 00:54:27;;;;;;;1.60;1.20;;;8.70;98.20;;;;;;5005330;28;20473;-77
2022/11/29 00:56:53;;;;;;;1.60;1.20;;;8.80;98.20;;;;;;4991445;28;20846;-78
2022/11/29 00:59:20;;;;;;;1.60;1.20;;;8.70;98.20;;;;;;5000778;28;20467;-77
2022/11/29 01:01:47;;;;;;;1.60;1.30;;;8.70;98.20;;;;;;5000523;28;20497;-76
2022/11/29 01:04:15;;;;;;;1.60;1.17;;;8.70;98.20;;;;;;4989259;28;20557;-76
2022/11/29 01:06:42;;;;;;;1.60;1.20;;;8.70;98.20;;;;;;4984922;28;20491;-77
2022/11/29 01:09:09;;;;;;;1.60;1.23;;;8.70;98.20;;;;;;5012135;28;20469;-79
2022/11/29 01:11:36;;;;;;;1.60;1.20;;;8.70;98.20;;;;;;4993861;28;20511;-83
2022/11/29 01:14:03;;;;;;;1.63;1.20;;;8.70;98.20;;;;;;4995199;28;20464;-79
2022/11/29 01:16:30;;;;;;;1.60;1.20;;;8.70;98.20;;;;;;4991388;28;20496;-79
2022/11/29 01:18:57;;;;;;;1.60;1.20;;;8.70;98.20;;;;;;5006764;28;20838;-79
2022/11/29 01:21:25;;;;;;;1.60;1.30;;;8.70;98.20;;;;;;4994944;28;20475;-79
2022/11/29 01:23:53;;;;;;;1.60;1.10;;;8.70;98.20;;;;;;4997427;28;20470;-79
2022/11/29 01:26:22;;;;;;;1.60;1.10;;;8.70;98.20;;;;;;4977701;28;20840;-78
2022/11/29 01:28:51;;;;;;;1.60;1.10;;;8.70;98.20;;;;;;5016514;28;20958;-77
2022/11/29 01:31:19;;;;;;;1.60;1.30;;;8.70;98.20;;;;;;4989440;28;20485;-77
2022/11/29 01:33:46;;;;;;;1.60;1.17;;;8.70;98.20;;;;;;5014634;28;20461;-78
2022/11/29 01:36:14;;;;;;;1.60;1.20;;;8.80;98.20;;;;;;4975230;28;20479;-77
2022/11/29 01:38:42;;;;;;;1.60;1.20;;;8.80;98.20;;;;;;5016387;28;20461;-78
2022/11/29 01:41:12;;;;;;;1.60;1.20;;;8.80;98.20;;;;;;4969562;28;20494;-77
2022/11/29 01:43:55;;;;;;;1.60;1.20;;;8.70;98.20;;;;;;4989876;28;20479;-77
2022/11/29 01:46:22;;;;;;;1.60;1.20;;;8.70;98.20;;;;;;4987645;28;20479;-78
2022/11/29 01:48:50;;;;;;;1.60;1.20;;;8.70;98.20;;;;;;5013674;28;20782;-78
2022/11/29 01:51:17;;;;;;;1.60;1.20;;;8.70;98.20;;;;;;4989291;28;20475;-78
2022/11/29 01:53:45;;;;;;;1.60;1.20;;;8.70;98.20;;;;;;5014961;28;20834;-76
2022/11/29 01:56:15;;;;;;;1.60;1.20;;;8.70;98.20;;;;;;4981657;28;20851;-75
2022/11/29 01:58:42;;;;;;;1.60;1.20;;;8.70;98.20;;;;;;5002983;28;20469;-78
2022/11/29 02:01:09;;;;;;;1.60;1.20;;;8.70;98.20;;;;;;4986839;28;20487;-77
2022/11/29 02:03:36;;;;;;;1.60;1.20;;;8.70;98.20;;;;;;5016394;28;21008;-77
2022/11/29 02:06:04;;;;;;;1.63;1.30;;;8.70;98.20;;;;;;4981807;28;20484;-77
2022/11/29 02:08:36;;;;;;;1.60;1.30;;;8.70;98.20;;;;;;5004571;28;20460;-78
2022/11/29 02:11:40;;;;;;;2.73;2.53;;;8.70;98.20;;;;;;4984228;28;20480;-77
2022/11/29 02:14:19;;;;;;;1.60;1.20;;;8.70;98.20;;;;;;4988402;28;20855;-77
2022/11/29 02:16:54;;;;;;;1.60;1.23;;;8.70;98.20;;;;;;4983876;28;20542;-77
2022/11/29 02:19:43;;;;;;;1.60;1.10;;;8.70;98.20;;;;;;5004501;28;20471;-78
2022/11/29 02:22:19;;;;;;;1.60;1.20;;;8.70;98.20;;;;;;4999302;28;20488;-76
2022/11/29 02:25:00;;;;;;;1.60;1.20;;;8.70;98.20;;;;;;4978161;28;21025;-78
2022/11/29 02:28:07;;;;;;;1.60;1.20;;;8.70;98.20;;;;;;4986606;28;20476;-77
2022/11/29 02:31:11;;;;;;;1.60;1.20;;;8.70;98.20;;;;;;4975274;28;20496;-76
2022/11/29 02:33:57;;;;;;;1.60;1.20;;;8.70;98.20;;;;;;4902099;28;20485;-78
2022/11/29 02:36:38;;;;;;;1.60;1.10;;;8.70;98.20;;;;;;4965678;28;21082;-78
2022/11/29 02:39:25;;;;;;;1.60;1.10;;;8.70;98.20;;;;;;4977227;28;20469;-78
2022/11/29 02:42:19;;;;;;;1.60;1.20;;;8.70;98.20;;;;;;4974039;28;20562;-78
2022/11/29 02:45:02;;;;;;;1.60;1.10;;;8.70;98.20;;;;;;4976327;28;20532;-78
2022/11/29 02:47:43;;;;;;;1.60;1.30;;;8.70;98.20;;;;;;4990073;28;20661;-77
2022/11/29 02:50:31;;;;;;;1.60;1.20;;;8.70;98.20;;;;;;4979080;28;20495;-76
2022/11/29 02:53:03;;;;;;;3.40;3.10;;;8.70;98.20;;;;;;4994064;28;20492;-78
2022/11/29 02:58:02;;;;;;;1.60;1.27;;;8.70;98.20;;;;;;4975359;28;20468;-78
2022/11/29 03:00:29;;;;;;;1.60;1.20;;;8.70;98.20;;;;;;4978912;28;20462;-78
2022/11/29 03:03:06;;;;;;;1.60;1.20;;;8.70;98.20;;;;;;4981408;28;20496;-77
2022/11/29 03:05:43;;;;;;;1.60;1.30;;;8.70;98.20;;;;;;4969235;28;20476;-78
2022/11/29 03:08:18;;;;;;;1.60;1.20;;;8.70;98.20;;;;;;4992432;28;20567;-78
2022/11/29 03:10:55;;;;;;;5.70;2.70;;;8.70;98.20;;;;;;4989073;28;20856;-78
2022/11/29 03:13:28;;;;;;;1.70;1.30;;;8.70;98.20;;;;;;4957969;28;20484;-79
2022/11/29 03:16:01;;;;;;;1.60;1.13;;;8.70;98.20;;;;;;4959967;28;20480;-78
2022/11/29 03:18:38;;;;;;;1.60;1.20;;;8.70;98.20;;;;;;5001757;28;20457;-79
2022/11/29 03:21:18;;;;;;;1.60;1.20;;;8.70;98.20;;;;;;4979016;28;20453;-77
2022/11/29 03:23:48;;;;;;;1.60;1.20;;;8.70;98.20;;;;;;4980757;28;20484;-81
2022/11/29 03:26:18;;;;;;;1.60;1.20;;;8.70;98.20;;;;;;4963932;28;20476;-77
2022/11/29 03:28:51;;;;;;;1.60;1.20;;;8.70;98.20;;;;;;4999991;28;20464;-77
2022/11/29 03:31:23;;;;;;;1.60;1.20;;;8.70;98.20;;;;;;4978846;28;20487;-77
2022/11/29 03:33:58;;;;;;;1.60;1.30;;;8.70;98.20;;;;;;4979644;28;20469;-77
2022/11/29 03:36:36;;;;;;;1.60;1.30;;;8.70;98.20;;;;;;4966728;28;20980;-78
2022/11/29 03:39:07;;;;;;;1.60;1.10;;;8.70;98.20;;;;;;4997579;28;20634;-77
2022/11/29 03:41:39;;;;;;;1.63;1.23;;;8.70;98.20;;;;;;4977363;28;20484;-80
2022/11/29 03:44:12;;;;;;;1.60;1.20;;;8.80;98.20;;;;;;4976775;28;20458;-77
2022/11/29 03:46:46;;;;;;;1.60;1.20;;;8.80;98.20;;;;;;4971070;28;20495;-78
2022/11/29 03:49:20;;;;;;;1.60;1.20;;;8.80;98.20;;;;;;4985521;28;20462;-78
2022/11/29 03:51:58;;;;;;;1.60;1.10;;;8.80;98.20;;;;;;4982431;28;20484;-78
2022/11/29 03:54:28;;;;;;;1.60;1.20;;;8.80;98.20;;;;;;4991185;28;20832;-77
2022/11/29 03:56:55;;;;;;;1.60;1.20;;;8.80;98.20;;;;;;4974522;28;20984;-77
2022/11/29 03:59:37;;;;;;;1.60;1.13;;;8.80;98.20;;;;;;4996659;28;20479;-77
2022/11/29 04:02:41;;;;;;;1.60;1.20;;;8.80;98.20;;;;;;4980531;28;20485;-77
2022/11/29 04:05:21;;;;;;;1.60;1.20;;;8.80;98.20;;;;;;4972196;28;20481;-77
2022/11/29 04:08:34;;;;;;;1.60;1.20;;;8.80;98.20;;;;;;4992810;28;20507;-78
2022/11/29 04:11:36;;;;;;;1.60;1.20;;;8.80;98.20;;;;;;4919899;28;20532;-77
2022/11/29 04:14:40;;;;;;;1.60;1.10;;;8.80;98.20;;;;;;4980720;28;20473;-77
2022/11/29 04:17:54;;;;;;;1.60;1.20;;;8.80;98.20;;;;;;4941801;28;20551;-78
2022/11/29 04:20:47;;;;;;;1.60;1.10;;;8.80;98.20;;;;;;4972231;28;20465;-77
2022/11/29 04:23:45;;;;;;;1.60;1.10;;;8.80;98.20;;;;;;4968070;28;20481;-77
2022/11/29 04:26:33;;;;;;;1.60;1.20;;;8.80;98.20;;;;;;4966864;28;20902;-77
2022/11/29 04:29:13;;;;;;;1.60;1.20;;;8.80;98.20;;;;;;4997095;28;20643;-77
2022/11/29 04:31:57;;;;;;;1.60;1.20;;;8.80;98.20;;;;;;4979809;28;20499;-77
2022/11/29 04:34:45;;;;;;;1.60;1.30;;;8.80;98.20;;;;;;4985471;28;20465;-77
2022/11/29 04:37:35;;;;;;;1.60;1.30;;;8.80;98.20;;;;;;4989220;28;20626;-77
2022/11/29 04:40:26;;;;;;;1.60;1.13;;;8.90;98.20;;;;;;4985718;28;20779;-78
2022/11/29 04:43:09;;;;;;;1.60;1.10;;;8.90;98.20;;;;;;4977167;28;20496;-77
2022/11/29 04:45:53;;;;;;;1.60;1.10;;;8.90;98.20;;;;;;4977972;28;20461;-77
2022/11/29 04:48:42;;;;;;;1.60;1.20;;;8.90;98.20;;;;;;4941347;28;20474;-79
2022/11/29 04:51:20;;;;;;;1.60;1.20;;;8.90;98.20;;;;;;4949775;28;20854;-79
2022/11/29 04:53:54;;;;;;;1.60;1.20;;;8.90;98.20;;;;;;5001916;28;20476;-78
2022/11/29 04:56:35;;;;;;;1.60;1.20;;;8.90;98.20;;;;;;4969089;28;20496;-79
2022/11/29 04:59:07;;;;;;;1.60;1.20;;;8.90;98.20;;;;;;5000016;28;20555;-77
2022/11/29 05:01:46;;;;;;;1.70;1.30;;;8.90;98.20;;;;;;4960769;28;21078;-79
2022/11/29 05:04:20;;;;;;;1.60;1.10;;;8.90;98.20;;;;;;4980552;28;20458;-76
2022/11/29 05:06:58;;;;;;;1.60;1.17;;;8.90;98.20;;;;;;4969139;28;20497;-77
2022/11/29 05:09:33;;;;;;;1.60;1.20;;;8.90;98.20;;;;;;4976954;28;20473;-77
2022/11/29 05:12:10;;;;;;;1.60;1.20;;;9.00;98.20;;;;;;4966085;28;21021;-79
2022/11/29 05:14:54;;;;;;;1.60;1.10;;;8.90;98.20;;;;;;4972463;28;20867;-78
2022/11/29 05:17:31;;;;;;;1.60;1.20;;;9.00;98.20;;;;;;4971943;28;20488;-77
2022/11/29 05:20:22;;;;;;;1.60;1.13;;;9.00;98.20;;;;;;4970684;28;20474;-77
2022/11/29 05:22:58;;;;;;;1.60;1.20;;;9.00;98.20;;;;;;4974201;28;20485;-78
2022/11/29 05:25:37;;;;;;;1.70;1.33;;;9.00;98.20;;;;;;4974755;28;20605;-79
2022/11/29 05:28:10;;;;;;;1.60;1.20;;;9.00;98.20;;;;;;4976857;28;20924;-77
2022/11/29 05:31:02;;;;;;;1.60;1.30;;;9.00;98.20;;;;;;4970781;28;20466;-80
2022/11/29 05:33:48;;;;;;;1.60;1.20;;;9.00;98.20;;;;;;4957355;28;20492;-77
2022/11/29 05:36:24;;;;;;;1.60;1.10;;;9.00;98.20;;;;;;4963518;28;20487;-77
2022/11/29 05:39:03;;;;;;;1.60;1.20;;;9.00;98.20;;;;;;4980633;28;21004;-78
2022/11/29 05:41:48;;;;;;;1.60;1.13;;;9.00;98.20;;;;;;4966099;28;20473;-77
2022/11/29 05:44:19;;;;;;;1.60;1.17;;;9.00;98.20;;;;;;4973909;28;20469;-79
2022/11/29 05:46:53;;;;;;;1.60;1.20;;;9.00;98.20;;;;;;4968804;28;20495;-77
2022/11/29 05:49:31;;;;;;;1.80;1.50;;;9.00;98.20;;;;;;4973896;28;21024;-77
2022/11/29 05:52:10;;;;;;;1.60;1.20;;;9.00;98.20;;;;;;4966349;28;20495;-77
2022/11/29 05:54:44;;;;;;;1.60;1.10;;;9.00;98.20;;;;;;4972687;28;20800;-77
2022/11/29 05:57:17;;;;;;;1.60;1.20;;;9.00;98.20;;;;;;4970384;28;20513;-81
2022/11/29 05:59:49;;;;;;;1.60;1.20;;;9.00;98.20;;;;;;4968757;28;20474;-77
2022/11/29 06:02:32;;;;;;;1.60;1.20;;;9.00;98.20;;;;;;4968919;28;20477;-77
2022/11/29 06:05:07;;;;;;;1.60;1.10;;;9.00;98.20;;;;;;4969981;28;20465;-78
2022/11/29 06:07:41;;;;;;;1.60;1.20;;;9.00;98.20;;;;;;4972653;28;21040;-78
2022/11/29 06:10:12;;;;;;;1.60;1.20;;;9.00;98.20;;;;;;4970753;28;20490;-77
2022/11/29 06:12:43;;;;;;;1.60;1.10;;;9.00;98.20;;;;;;4975512;28;21300;-79
2022/11/29 06:15:33;;;;;;;1.63;1.20;;;9.00;98.20;;;;;;4968632;28;20470;-78
2022/11/29 06:18:21;;;;;;;1.60;1.20;;;9.00;98.20;;;;;;4976309;28;20578;-81
2022/11/29 06:20:59;;;;;;;1.60;1.20;;;9.00;98.20;;;;;;4961992;28;21230;-78
2022/11/29 06:23:52;;;;;;;1.60;1.20;;;9.00;98.20;;;;;;4981134;28;20470;-80
2022/11/29 06:26:33;;;;;;;1.80;1.57;;;9.00;98.20;;;;;;4962071;28;20919;-80
2022/11/29 06:29:16;;;;;;;1.60;1.10;;;9.00;98.20;;;;;;4978158;28;20466;-78
2022/11/29 06:31:48;;;;;;;1.60;1.10;;;9.00;98.20;;;;;;4969104;28;20568;-78
2022/11/29 06:34:25;;;;;;;1.60;1.20;;;9.00;98.20;;;;;;4977052;28;20470;-80
2022/11/29 06:36:54;;;;;;;1.60;1.10;;;9.00;98.20;;;;;;4967869;28;20530;-80
2022/11/29 06:39:22;;;;;;;1.60;1.10;;;8.90;98.20;;;;;;4975033;28;20462;-80
2022/11/29 06:41:49;;;;;;;1.60;1.20;;;8.90;98.20;;;;;;4967933;28;20501;-80
2022/11/29 06:44:16;;;;;;;1.60;1.10;;;8.80;98.20;;;;;;4974659;28;20466;-78
2022/11/29 06:46:47;;;;;;;1.60;1.20;;;8.90;98.20;;;;;;4967480;28;20499;-79
2022/11/29 06:49:23;;;;;;;1.60;1.30;;;8.90;98.20;;;;;;4973688;28;20522;-78
2022/11/29 06:52:03;;;;;;;1.60;1.10;;;8.90;98.20;;;;;;4969101;28;21032;-78
2022/11/29 06:54:45;;;;;;;1.60;1.10;;;8.80;98.20;;;;;;4976629;28;20461;-80
2022/11/29 06:57:18;;;;;;;1.63;1.23;;;8.80;98.20;;;;;;4969561;28;20500;-79
2022/11/29 06:59:59;;;;;;;2.57;2.07;;;8.80;98.20;;;;;;4973702;28;20472;-78
2022/11/29 07:02:51;;;;;;;1.60;1.20;;;8.80;98.20;;;;;;4972211;28;20959;-78
2022/11/29 07:05:25;;;;;;;1.60;1.20;;;8.80;98.20;;;;;;4968561;28;20552;-78
2022/11/29 07:07:55;;;;;;;1.60;1.20;;;8.80;98.20;;;;;;4974657;28;20503;-80
2022/11/29 07:10:23;;;;;;;1.60;1.10;;;8.70;98.20;;;;;;4969497;28;20557;-81
2022/11/29 07:12:51;;;;;;;1.60;1.20;;;8.70;98.20;;;;;;4974582;28;20508;-80
2022/11/29 07:15:21;;;;;;;1.60;1.30;;;8.70;98.20;;;;;;4969631;28;20470;-78
2022/11/29 07:18:10;;;;;;;1.60;1.20;;;8.60;98.20;;;;;;4974070;28;20863;-78
2022/11/29 07:20:49;;;;;;;1.80;1.60;;;8.60;98.20;;;;;;4970880;28;20842;-82
2022/11/29 07:23:24;;;;;;;1.60;1.10;;;8.60;98.20;;;;;;4956863;28;20469;-79
2022/11/29 07:26:01;;;;;;;1.60;1.30;;;8.60;98.20;;;;;;4957934;28;20485;-78
2022/11/29 07:28:42;;;;;;;1.60;1.20;;;8.60;98.20;;;;;;4978869;28;20465;-78
2022/11/29 07:31:16;;;;;;;1.60;1.10;;;8.60;98.20;;;;;;4961503;28;20493;-79
2022/11/29 07:33:55;;;;;;;1.60;1.30;;;8.60;98.20;;;;;;4980028;28;20473;-78
2022/11/29 07:36:30;;;;;;;1.60;1.20;;;8.60;98.20;;;;;;4964753;28;20480;-78
2022/11/29 07:39:13;;;;;;;1.60;1.10;;;8.60;98.20;;;;;;4981606;28;20520;-78
2022/11/29 07:41:46;;;;;;;1.63;1.23;;;8.60;98.20;;;;;;4968806;28;20490;-79
2022/11/29 07:44:21;;;;;;;1.70;1.20;;;8.60;98.20;;;;;;4978207;28;20464;-78
2022/11/29 07:46:47;;;;;;;1.60;1.20;;;8.60;98.20;;;;;;4969781;28;20484;-78
2022/11/29 07:49:16;;;;;;;1.60;1.20;;;8.60;98.20;;;;;;4979724;28;20789;-79
2022/11/29 07:51:43;;;;;;;1.63;1.23;;;8.60;98.20;;;;;;4968637;28;20488;-78
2022/11/29 07:54:12;;;;;;;1.60;1.20;;;8.60;98.20;;;;;;4977025;28;20462;-78
2022/11/29 07:56:39;;;;;;;1.60;1.17;;;8.60;98.20;;;;;;4968343;28;20500;-78
2022/11/29 07:59:09;;;;;;;1.60;1.10;;;8.60;98.20;;;;;;4981356;28;20473;-78
2022/11/29 08:01:36;;;;;;;1.60;1.20;;;8.60;98.20;;;;;;4970376;28;20468;-78
2022/11/29 08:04:03;;;;;;;1.60;1.10;;;8.60;98.20;;;;;;4979372;28;20462;-78
2022/11/29 08:06:31;;;;;;;1.60;1.20;;;8.60;98.20;;;;;;4966735;28;20475;-79
2022/11/29 08:08:58;;;;;;;1.70;1.50;;;8.60;98.20;;;;;;4981289;28;20474;-78
2022/11/29 08:11:25;;;;;;;1.60;1.20;;;8.70;98.20;;;;;;4966472;28;20479;-79
2022/11/29 08:13:56;;;;;;;1.60;1.20;;;8.70;98.20;;;;;;4981504;28;20470;-79
2022/11/29 08:16:23;;;;;;;1.60;1.20;;;8.70;98.20;;;;;;4966543;28;20484;-78
2022/11/29 08:18:49;;;;;;;1.60;1.30;;;8.60;98.20;;;;;;4982004;28;20470;-79
2022/11/29 08:21:17;;;;;;;1.60;1.20;;;8.70;98.20;;;;;;4965522;28;20487;-78
2022/11/29 08:23:45;;;;;;;1.60;1.10;;;8.70;98.20;;;;;;4983902;28;20466;-78
2022/11/29 08:26:12;;;;;;;1.70;1.30;;;8.70;98.20;;;;;;4963409;28;20494;-78
2022/11/29 08:28:39;;;;;;;1.60;1.30;;;8.70;98.20;;;;;;4983153;28;20465;-78
2022/11/29 08:31:08;;;;;;;1.60;1.20;;;8.70;98.20;;;;;;4963426;28;20478;-80
2022/11/29 08:33:35;;;;;;;1.60;1.20;;;8.80;98.20;;;;;;4984023;28;20500;-78
2022/11/29 08:36:05;;;;;;;1.60;1.30;;;8.80;98.20;;;;;;4960368;28;21012;-78
2022/11/29 08:38:32;;;;;;;1.60;1.20;;;8.80;98.20;;;;;;4984644;28;20869;-78
2022/11/29 08:41:02;;;;;;;1.60;1.20;;;8.80;98.20;;;;;;4962447;28;20480;-79
2022/11/29 08:43:29;;;;;;;1.60;1.10;;;8.80;98.20;;;;;;4982437;28;20470;-79
2022/11/29 08:45:56;;;;;;;1.63;1.20;;;8.90;98.20;;;;;;4961156;28;20536;-78
2022/11/29 08:48:22;;;;;;;1.60;1.20;;;8.90;98.20;;;;;;4985835;28;20833;-78
2022/11/29 08:50:50;;;;;;;1.60;1.20;;;8.90;98.20;;;;;;4961790;28;20934;-78
2022/11/29 08:56:02;;;;;;;1.63;1.30;;;8.90;98.20;;;;;;4960746;28;20839;-78
2022/11/29 08:58:29;;;;;;;1.60;1.20;;;8.90;98.20;;;;;;4984109;28;20469;-78
2022/11/29 09:00:57;;;;;;;1.60;1.10;;;9.00;98.20;;;;;;4961680;28;20469;-82
2022/11/29 09:06:10;;;;;;;1.97;1.77;;;9.00;98.20;;;;;;4964547;28;20496;-79
2022/11/29 09:08:37;;;;;;;1.70;1.33;;;9.00;98.20;;;;;;4980252;28;20470;-78
2022/11/29 09:11:12;;;;;;;1.60;1.10;;;9.00;98.20;;;;;;4963030;28;20790;-78
2022/11/29 09:13:39;;;;;;;1.60;1.20;;;9.00;98.20;;;;;;4982810;28;20488;-78
2022/11/29 09:16:07;;;;;;;1.60;1.10;;;9.10;98.20;;;;;;4961068;28;20998;-80
2022/11/29 09:18:36;;;;;;;1.60;1.20;;;9.10;98.20;;;;;;4982712;28;20462;-79
2022/11/29 09:21:05;;;;;;;1.60;1.20;;;9.10;98.20;;;;;;4959598;28;20478;-79
2022/11/29 09:23:32;;;;;;;1.60;1.17;;;9.10;98.20;;;;;;4983692;28;20469;-78
2022/11/29 09:25:59;;;;;;;1.70;1.33;;;9.10;98.20;;;;;;4960430;28;20888;-78
2022/11/29 09:28:27;;;;;;;1.70;1.30;;;9.10;98.20;;;;;;4984820;28;20458;-78
2022/11/29 09:30:53;;;;;;;1.63;1.17;;;9.10;98.20;;;;;;4962046;28;20933;-78
2022/11/29 09:33:20;;;;;;;1.60;1.13;;;9.10;98.20;;;;;;4983514;28;20494;-79
2022/11/29 09:35:48;;;;;;;1.60;1.10;;;9.10;98.20;;;;;;4966807;28;20481;-78
2022/11/29 09:38:15;;;;;;;1.60;1.20;;;9.10;98.20;;;;;;4984364;28;20478;-78
2022/11/29 09:40:52;;;;;;;1.70;1.20;;;9.10;98.20;;;;;;4970584;28;20477;-78
2022/11/29 09:43:26;;;;;;;1.60;1.20;;;9.10;98.20;;;;;;4969539;28;20480;-78
2022/11/29 09:46:00;;;;;;;1.60;1.17;;;9.20;98.20;;;;;;4958765;28;20481;-78
2022/11/29 09:49:03;;;;;;;1.60;1.10;;;9.20;98.20;;;;;;4983483;28;20473;-79
2022/11/29 09:51:37;;;;;;;1.70;1.33;;;9.20;98.20;;;;;;4946297;28;20487;-80
2022/11/29 09:54:17;;;;;;;1.60;1.10;;;9.20;98.20;;;;;;4978439;28;20486;-78
2022/11/29 09:56:47;;;;;;;1.70;1.30;;;9.30;98.20;;;;;;4965034;28;20532;-79
2022/11/29 09:59:21;;;;;;;1.60;1.10;;;9.30;98.20;;;;;;4978255;28;20484;-79
2022/11/29 10:01:54;;;;;;;1.60;1.13;;;9.30;98.20;;;;;;4970596;28;20958;-78
2022/11/29 10:04:25;;;;;;;1.70;1.20;;;9.30;98.20;;;;;;4978769;28;20493;-79
2022/11/29 10:07:01;;;;;;;1.63;1.20;;;9.30;98.20;;;;;;4969912;28;20488;-79
2022/11/29 10:09:33;;;;;;;1.60;1.20;;;9.30;98.20;;;;;;4974436;28;20472;-78
2022/11/29 10:12:07;;;;;;;1.60;1.20;;;9.30;98.20;;;;;;4969275;28;20477;-80
2022/11/29 10:14:41;;;;;;;1.60;1.20;;;9.40;98.20;;;;;;4974178;28;20458;-80
2022/11/29 10:17:27;;;;;;;1.60;1.10;;;9.40;98.20;;;;;;4968609;28;21029;-78
2022/11/29 10:19:59;;;;;;;1.60;1.20;;;9.40;98.20;;;;;;4970456;28;20473;-79
2022/11/29 10:22:34;;;;;;;1.60;1.10;;;9.40;98.20;;;;;;4968878;28;20485;-78
2022/11/29 10:25:03;;;;;;;1.60;1.20;;;9.50;98.20;;;;;;4970631;28;20545;-79
2022/11/29 10:27:30;;;;;;;1.60;1.10;;;9.50;98.20;;;;;;4972377;28;20571;-78
2022/11/29 10:30:01;;;;;;;1.60;1.10;;;9.50;98.20;;;;;;4972766;28;20477;-78
2022/11/29 10:32:32;;;;;;;1.60;1.10;;;9.50;98.20;;;;;;4969208;28;20599;-78
2022/11/29 10:35:00;;;;;;;1.60;1.20;;;9.50;98.20;;;;;;4970032;28;21033;-80
2022/11/29 10:37:31;;;;;;;1.60;1.20;;;9.50;98.20;;;;;;4970712;28;20485;-78
2022/11/29 10:40:03;;;;;;;1.60;1.20;;;9.60;98.20;;;;;;4970377;28;20485;-79
2022/11/29 10:42:51;;;;;;;1.70;1.30;;;9.60;98.20;;;;;;4969498;28;20476;-78
2022/11/29 10:45:25;;;;;;;1.60;1.10;;;9.70;98.20;;;;;;4967926;28;20470;-78
2022/11/29 10:47:55;;;;;;;1.60;1.10;;;9.70;98.20;;;;;;4972642;28;20488;-80
2022/11/29 10:50:25;;;;;;;1.60;1.20;;;9.70;98.20;;;;;;4970026;28;20492;-79
2022/11/29 10:52:52;;;;;;;1.60;1.20;;;9.80;98.20;;;;;;4974824;28;20481;-78
2022/11/29 10:55:19;;;;;;;1.60;1.10;;;9.80;98.20;;;;;;4968657;28;20478;-79
2022/11/29 10:58:08;;;;;;;1.60;1.10;;;9.80;98.20;;;;;;4975279;28;20493;-79
2022/11/29 11:00:45;;;;;;;1.60;1.10;;;9.80;98.20;;;;;;4968481;28;20549;-78
2022/11/29 11:03:24;;;;;;;1.60;1.10;;;9.90;98.20;;;;;;4956814;28;20474;-79
2022/11/29 11:05:59;;;;;;;1.67;1.20;;;9.90;98.20;;;;;;4959074;28;20481;-78
2022/11/29 11:08:27;;;;;;;1.67;1.20;;;10.00;98.20;;;;;;4982125;28;21020;-78
2022/11/29 11:10:55;;;;;;;1.60;1.10;;;10.00;98.20;;;;;;4956726;28;20462;-79
2022/11/29 11:13:24;;;;;;;1.60;1.10;;;10.00;98.20;;;;;;4985327;28;20875;-79
2022/11/29 11:15:57;;;;;;;1.60;1.10;;;10.00;98.20;;;;;;4958256;28;20481;-78
2022/11/29 11:18:28;;;;;;;1.60;1.10;;;10.00;98.20;;;;;;4983137;28;20963;-79
2022/11/29 11:20:57;;;;;;;1.60;1.10;;;10.00;98.20;;;;;;4958354;28;20640;-79
2022/11/29 11:23:26;;;;;;;1.60;1.10;;;10.00;98.20;;;;;;4985134;28;20472;-78
2022/11/29 11:25:58;;;;;;;1.60;1.30;;;10.00;98.20;;;;;;4957842;28;20486;-83
2022/11/29 11:28:27;;;;;;;1.60;1.10;;;10.00;98.20;;;;;;4979272;28;20470;-79
2022/11/29 11:30:57;;;;;;;1.60;1.10;;;9.90;98.20;;;;;;4962213;28;20558;-79
2022/11/29 11:33:27;;;;;;;1.60;1.10;;;9.90;98.20;;;;;;4984997;28;20580;-79
2022/11/29 11:36:03;;;;;;;1.60;1.20;;;9.90;98.20;;;;;;4960734;28;20787;-78
2022/11/29 11:38:30;;;;;;;1.63;1.23;;;9.90;98.20;;;;;;4980202;28;21037;-78
2022/11/29 11:41:16;;;;;;;1.60;1.10;;;9.90;98.20;;;;;;4960472;28;20507;-81
2022/11/29 11:43:49;;;;;;;1.60;1.13;;;9.90;98.20;;;;;;4980126;28;20525;-79
2022/11/29 11:46:16;;;;;;;1.60;1.10;;;9.90;98.20;;;;;;4962863;28;20482;-79
2022/11/29 11:48:45;;;;;;;1.60;1.10;;;9.90;98.20;;;;;;4979273;28;20831;-79
2022/11/29 11:51:22;;;;;;;1.60;1.10;;;10.00;98.20;;;;;;4962562;28;20473;-79
2022/11/29 11:53:52;;;;;;;1.63;1.30;;;10.00;98.20;;;;;;4978310;28;20496;-78
2022/11/29 11:56:19;;;;;;;1.63;1.20;;;10.00;98.20;;;;;;4959148;28;20501;-78
2022/11/29 11:58:50;;;;;;;1.60;1.10;;;10.00;98.20;;;;;;4978822;28;20473;-80
2022/11/29 12:01:25;;;;;;;1.60;1.10;;;10.00;98.20;;;;;;4962279;28;20554;-79
2022/11/29 12:04:00;;;;;;;1.60;1.10;;;10.00;98.20;;;;;;4978276;28;20527;-79
2022/11/29 12:06:43;;;;;;;1.60;1.20;;;10.00;98.20;;;;;;4959544;28;21051;-78
2022/11/29 12:09:18;;;;;;;1.60;1.13;;;9.90;98.20;;;;;;4978317;28;20472;-80
2022/11/29 12:11:54;;;;;;;1.63;1.10;;;10.00;98.20;;;;;;4963414;28;20484;-79
2022/11/29 12:14:30;;;;;;;1.60;1.10;;;10.00;98.20;;;;;;4975316;28;20575;-80
2022/11/29 12:17:06;;;;;;;1.60;1.10;;;10.00;98.20;;;;;;4966086;28;20555;-80
2022/11/29 12:19:43;;;;;;;1.60;1.10;;;10.00;98.20;;;;;;4974415;28;20473;-79
2022/11/29 12:22:17;;;;;;;1.60;1.10;;;10.00;98.20;;;;;;4974305;28;20491;-80
2022/11/29 12:24:52;;;;;;;1.60;1.10;;;10.00;98.20;;;;;;4975590;28;20540;-81
2022/11/29 12:27:19;;;;;;;1.63;1.10;;;10.00;98.20;;;;;;4973987;28;20499;-79
2022/11/29 12:29:46;;;;;;;1.60;1.10;;;10.00;98.20;;;;;;4976853;28;20814;-79
2022/11/29 12:32:39;;;;;;;1.60;1.20;;;10.00;98.20;;;;;;4973128;28;20886;-79
2022/11/29 12:35:31;;;;;;;1.60;1.10;;;10.00;98.20;;;;;;4971858;28;20580;-81
2022/11/29 12:38:04;;;;;;;1.60;1.20;;;10.00;98.20;;;;;;4978134;28;21067;-79
2022/11/29 12:40:36;;;;;;;1.60;1.13;;;10.00;98.20;;;;;;4967928;28;21341;-80
2022/11/29 12:43:14;;;;;;;1.60;1.30;;;10.00;98.20;;;;;;4976380;28;20571;-79
2022/11/29 12:45:48;;;;;;;1.60;1.20;;;10.00;98.20;;;;;;4972402;28;20496;-80
2022/11/29 12:48:26;;;;;;;1.60;1.10;;;10.00;98.20;;;;;;4961703;28;20904;-79
2022/11/29 12:51:02;;;;;;;1.60;1.20;;;10.00;98.20;;;;;;4959134;28;20521;-81
2022/11/29 12:53:44;;;;;;;1.60;1.10;;;10.00;98.20;;;;;;4983982;28;20484;-79
2022/11/29 12:56:18;;;;;;;1.60;1.10;;;10.00;98.20;;;;;;4963324;28;20499;-80
2022/11/29 12:59:04;;;;;;;1.60;1.20;;;10.00;98.20;;;;;;4978938;28;20473;-79
2022/11/29 13:01:41;;;;;;;1.60;1.07;;;10.00;98.20;;;;;;4963297;28;20473;-79
2022/11/29 13:04:22;;;;;;;1.60;1.20;;;9.90;98.20;;;;;;4979828;28;20452;-81
2022/11/29 13:06:55;;;;;;;1.60;1.10;;;9.90;98.20;;;;;;4968231;28;20507;-79
2022/11/29 13:09:54;;;;;;;1.60;1.20;;;9.90;98.20;;;;;;4976159;28;20462;-81
2022/11/29 13:12:33;;;;;;;1.60;1.10;;;9.90;98.20;;;;;;4962950;28;20480;-79
2022/11/29 13:15:04;;;;;;;1.90;1.70;;;9.90;98.20;;;;;;4971740;28;20515;-78
2022/11/29 13:17:38;;;;;;;1.60;1.00;;;9.90;98.20;;;;;;4973505;28;20501;-79
2022/11/29 13:20:19;;;;;;;1.60;1.10;;;9.90;98.20;;;;;;4972691;28;20473;-79
2022/11/29 13:22:53;;;;;;;3.80;3.50;;;9.90;98.20;;;;;;4972998;28;20485;-79
2022/11/29 13:25:24;;;;;;;1.60;1.10;;;9.90;98.20;;;;;;4968618;28;21073;-80
2022/11/29 13:27:57;;;;;;;1.60;1.20;;;9.90;98.20;;;;;;4973668;28;20488;-79
2022/11/29 13:30:24;;;;;;;1.60;1.13;;;9.90;98.20;;;;;;4969980;28;20552;-80
2022/11/29 13:32:56;;;;;;;1.60;1.10;;;9.90;98.20;;;;;;4975521;28;20488;-80
2022/11/29 13:35:30;;;;;;;1.60;1.10;;;9.90;98.20;;;;;;4966041;28;20481;-79
2022/11/29 13:38:04;;;;;;;1.60;1.20;;;9.90;98.20;;;;;;4977382;28;20481;-80
2022/11/29 13:40:37;;;;;;;1.60;1.10;;;9.90;98.20;;;;;;4972151;28;20492;-81